Time;durP1;ratioP1;P1;durP2;ratioP2;P2;SDS_P1;SDS_P2;PMS_P1;PMS_P2;Temp;Humidity;BMP_temperature;BMP_pressure;BME280_temperature;BME280_humidity;BME280_pressure;Samples;Min_cycle;Max_cycle;Signal;HPM_P1;HPM_P2
2024/02/10 00:00:26;;;;;;;29.20;12.75;;;;;;;;;;5070555;28;20037;-65
2024/02/10 00:02:54;;;;;;;25.73;13.82;;;;;;;;;;5071287;28;20019;-65
2024/02/10 00:05:23;;;;;;;23.30;13.30;;;;;;;;;;5071482;28;20100;-66
2024/02/10 00:07:52;;;;;;;23.85;12.98;;;;;;;;;;5072753;28;20517;-66
2024/02/10 00:10:18;;;;;;;29.08;12.32;;;;;;;;;;5070603;28;20037;-66
2024/02/10 00:12:45;;;;;;;32.30;12.88;;;;;;;;;;5079578;28;20032;-66
2024/02/10 00:15:11;;;;;;;21.00;11.48;;;;;;;;;;5071222;28;20122;-66
2024/02/10 00:17:38;;;;;;;26.77;12.50;;;;;;;;;;5075313;28;20025;-66
2024/02/10 00:20:04;;;;;;;26.50;12.32;;;;;;;;;;5070075;28;20021;-66
2024/02/10 00:22:30;;;;;;;27.63;12.00;;;;;;;;;;5073786;28;20474;-66
2024/02/10 00:24:57;;;;;;;21.58;12.52;;;;;;;;;;5069640;28;20037;-66
2024/02/10 00:27:23;;;;;;;25.00;11.93;;;;;;;;;;5072485;28;20418;-66
2024/02/10 00:29:49;;;;;;;27.35;13.23;;;;;;;;;;5072494;28;20058;-66
2024/02/10 00:32:15;;;;;;;29.23;12.23;;;;;;;;;;5067850;28;20024;-66
2024/02/10 00:34:41;;;;;;;24.40;11.15;;;;;;;;;;5055268;28;20058;-66
2024/02/10 00:37:10;;;;;;;20.20;11.82;;;;;;;;;;5073637;28;20027;-66
2024/02/10 00:39:36;;;;;;;24.75;11.82;;;;;;;;;;5054689;28;20673;-66
2024/02/10 00:42:02;;;;;;;22.05;11.95;;;;;;;;;;5070474;28;20063;-66
2024/02/10 00:44:28;;;;;;;26.95;11.57;;;;;;;;;;5072209;28;20477;-66
2024/02/10 00:46:57;;;;;;;27.08;11.65;;;;;;;;;;5074326;28;20071;-66
2024/02/10 00:49:24;;;;;;;20.33;11.00;;;;;;;;;;5078697;28;20034;-67
2024/02/10 00:51:54;;;;;;;25.00;10.57;;;;;;;;;;5077006;28;20044;-66
2024/02/10 00:54:26;;;;;;;24.67;11.32;;;;;;;;;;5051587;28;20032;-66
2024/02/10 00:56:52;;;;;;;20.65;10.63;;;;;;;;;;5065584;28;20425;-65
2024/02/10 00:59:18;;;;;;;21.65;9.98;;;;;;;;;;5070119;28;20043;-67
2024/02/10 01:01:44;;;;;;;17.73;10.13;;;;;;;;;;5071845;28;20055;-66
2024/02/10 01:04:12;;;;;;;17.23;9.77;;;;;;;;;;5070075;28;20025;-66
2024/02/10 01:06:40;;;;;;;12.70;8.52;;;;;;;;;;5068277;28;20024;-66
2024/02/10 01:09:06;;;;;;;17.65;10.20;;;;;;;;;;5062825;28;20036;-66
2024/02/10 01:11:33;;;;;;;16.42;8.45;;;;;;;;;;5075092;28;20020;-66
2024/02/10 01:13:59;;;;;;;11.75;7.75;;;;;;;;;;5069419;28;20021;-66
2024/02/10 01:16:25;;;;;;;16.38;7.60;;;;;;;;;;5069378;28;20017;-66
2024/02/10 01:18:51;;;;;;;15.07;7.47;;;;;;;;;;5077243;28;20111;-66
2024/02/10 01:21:18;;;;;;;13.00;7.80;;;;;;;;;;5066693;28;20025;-66
2024/02/10 01:23:46;;;;;;;8.63;6.60;;;;;;;;;;5063455;28;20362;-66
2024/02/10 01:26:13;;;;;;;12.98;6.75;;;;;;;;;;5063231;28;20434;-66
2024/02/10 01:28:44;;;;;;;14.15;7.57;;;;;;;;;;5068930;28;20028;-66
2024/02/10 01:31:10;;;;;;;13.93;6.93;;;;;;;;;;5066949;28;20063;-65
2024/02/10 01:33:36;;;;;;;14.05;6.95;;;;;;;;;;5074573;28;20497;-66
2024/02/10 01:36:03;;;;;;;18.73;8.38;;;;;;;;;;5071927;28;20020;-66
2024/02/10 01:38:29;;;;;;;15.65;7.68;;;;;;;;;;5069288;28;20466;-66
2024/02/10 01:40:55;;;;;;;15.00;7.10;;;;;;;;;;5069091;28;20063;-66
2024/02/10 01:43:21;;;;;;;12.98;7.22;;;;;;;;;;5070296;28;20044;-67
2024/02/10 01:45:51;;;;;;;16.58;7.80;;;;;;;;;;5050789;28;20032;-66
2024/02/10 01:48:18;;;;;;;19.27;8.43;;;;;;;;;;5070348;28;20070;-66
2024/02/10 01:50:44;;;;;;;11.10;7.10;;;;;;;;;;5069244;28;20478;-66
2024/02/10 01:53:10;;;;;;;11.38;6.90;;;;;;;;;;5072536;28;20389;-66
2024/02/10 01:55:36;;;;;;;9.80;6.93;;;;;;;;;;5072522;28;20024;-66
2024/02/10 01:58:05;;;;;;;12.00;7.25;;;;;;;;;;5070576;28;20075;-66
2024/02/10 02:00:31;;;;;;;12.63;6.85;;;;;;;;;;5064247;28;20027;-66
2024/02/10 02:02:59;;;;;;;15.02;7.60;;;;;;;;;;5072241;28;20033;-66
2024/02/10 02:05:32;;;;;;;11.75;7.03;;;;;;;;;;5069131;28;20459;-66
2024/02/10 02:08:07;;;;;;;17.95;8.07;;;;;;;;;;5066952;28;20044;-63
2024/02/10 02:10:33;;;;;;;15.98;8.32;;;;;;;;;;5068403;28;20076;-66
2024/02/10 02:13:00;;;;;;;11.10;7.78;;;;;;;;;;5069187;28;20024;-66
2024/02/10 02:15:30;;;;;;;11.15;6.40;;;;;;;;;;5073379;28;20028;-66
2024/02/10 02:17:57;;;;;;;10.23;6.78;;;;;;;;;;5069084;28;20032;-66
2024/02/10 02:20:23;;;;;;;10.73;6.43;;;;;;;;;;5069848;28;20017;-66
2024/02/10 02:22:52;;;;;;;15.57;5.75;;;;;;;;;;5069537;28;20032;-66
2024/02/10 02:25:18;;;;;;;9.88;5.50;;;;;;;;;;5069236;28;20047;-66
2024/02/10 02:27:44;;;;;;;10.75;5.65;;;;;;;;;;5070957;28;20031;-66
2024/02/10 02:30:10;;;;;;;12.07;5.45;;;;;;;;;;5079195;28;20541;-67
2024/02/10 02:32:36;;;;;;;9.02;5.70;;;;;;;;;;5081933;28;20043;-66
2024/02/10 02:35:09;;;;;;;10.43;5.10;;;;;;;;;;5081514;28;20032;-66
2024/02/10 02:37:35;;;;;;;7.20;4.88;;;;;;;;;;5081087;28;20024;-66
2024/02/10 02:40:02;;;;;;;9.15;5.28;;;;;;;;;;5068893;28;20032;-67
2024/02/10 02:42:28;;;;;;;9.13;4.55;;;;;;;;;;5071551;28;20050;-66
2024/02/10 02:44:54;;;;;;;10.18;4.72;;;;;;;;;;5070776;28;20060;-66
2024/02/10 02:47:22;;;;;;;7.97;5.00;;;;;;;;;;5072436;28;20056;-65
2024/02/10 02:49:48;;;;;;;7.97;5.00;;;;;;;;;;5073817;28;20470;-66
2024/02/10 02:52:14;;;;;;;8.77;4.50;;;;;;;;;;5072895;28;20044;-67
2024/02/10 02:54:42;;;;;;;14.10;4.53;;;;;;;;;;5073133;28;20027;-66
2024/02/10 02:57:08;;;;;;;6.07;4.45;;;;;;;;;;5055866;28;20025;-66
2024/02/10 02:59:34;;;;;;;9.85;4.05;;;;;;;;;;5068399;28;20493;-66
2024/02/10 03:02:02;;;;;;;8.02;4.55;;;;;;;;;;5068076;28;20028;-65
2024/02/10 03:04:28;;;;;;;8.95;4.53;;;;;;;;;;5066890;28;20020;-68
2024/02/10 03:06:54;;;;;;;12.15;5.10;;;;;;;;;;5073035;28;20029;-66
2024/02/10 03:09:20;;;;;;;8.00;4.00;;;;;;;;;;5068650;28;20032;-66
2024/02/10 03:11:49;;;;;;;9.13;4.63;;;;;;;;;;5067096;28;20393;-66
2024/02/10 03:14:15;;;;;;;6.25;4.30;;;;;;;;;;5069287;28;20366;-66
2024/02/10 03:16:42;;;;;;;10.60;4.75;;;;;;;;;;5074652;28;20031;-66
2024/02/10 03:19:08;;;;;;;7.95;5.35;;;;;;;;;;5069103;28;20016;-66
2024/02/10 03:21:37;;;;;;;6.45;4.38;;;;;;;;;;5069025;28;20027;-66
2024/02/10 03:24:06;;;;;;;8.40;5.05;;;;;;;;;;5072336;28;20029;-66
2024/02/10 03:26:36;;;;;;;10.57;5.57;;;;;;;;;;5069628;28;20024;-66
2024/02/10 03:29:03;;;;;;;10.35;4.97;;;;;;;;;;5052463;28;20037;-64
2024/02/10 03:31:29;;;;;;;8.57;4.95;;;;;;;;;;5070858;28;20488;-66
2024/02/10 03:33:55;;;;;;;10.15;4.60;;;;;;;;;;5077833;28;20029;-66
2024/02/10 03:36:24;;;;;;;8.82;6.43;;;;;;;;;;5067325;28;20013;-66
2024/02/10 03:38:50;;;;;;;6.65;4.63;;;;;;;;;;5068883;28;20017;-66
2024/02/10 03:41:16;;;;;;;7.35;5.20;;;;;;;;;;5072519;28;20028;-66
2024/02/10 03:43:42;;;;;;;7.85;4.55;;;;;;;;;;5065167;28;20618;-66
2024/02/10 03:46:08;;;;;;;9.43;5.72;;;;;;;;;;5061267;28;20020;-66
2024/02/10 03:48:39;;;;;;;12.07;4.95;;;;;;;;;;5069942;28;20105;-66
2024/02/10 03:51:05;;;;;;;7.68;5.00;;;;;;;;;;5083671;28;20032;-65
2024/02/10 03:53:32;;;;;;;7.55;4.82;;;;;;;;;;5065078;28;20024;-66
2024/02/10 03:55:58;;;;;;;9.13;6.03;;;;;;;;;;5062769;28;20036;-66
2024/02/10 03:58:25;;;;;;;9.18;5.90;;;;;;;;;;5067662;28;20083;-66
2024/02/10 04:00:50;;;;;;;9.65;5.97;;;;;;;;;;5067491;28;20024;-66
2024/02/10 04:03:17;;;;;;;9.13;5.63;;;;;;;;;;5069414;28;20024;-66
2024/02/10 04:05:46;;;;;;;9.07;5.95;;;;;;;;;;5072773;28;20040;-66
2024/02/10 04:08:17;;;;;;;14.55;6.25;;;;;;;;;;5076847;28;20024;-66
2024/02/10 04:10:43;;;;;;;10.18;6.30;;;;;;;;;;5073031;28;21148;-66
2024/02/10 04:13:09;;;;;;;14.48;5.95;;;;;;;;;;5064738;28;20025;-66
2024/02/10 04:15:35;;;;;;;10.18;6.15;;;;;;;;;;5071062;28;20028;-66
2024/02/10 04:18:01;;;;;;;12.88;6.38;;;;;;;;;;5075460;28;20025;-66
2024/02/10 04:20:27;;;;;;;9.43;5.45;;;;;;;;;;5062894;28;20031;-66
2024/02/10 04:22:55;;;;;;;12.85;6.65;;;;;;;;;;5071499;28;20029;-66
2024/02/10 04:25:21;;;;;;;9.05;5.78;;;;;;;;;;5065291;28;20025;-66
2024/02/10 04:27:47;;;;;;;9.65;5.97;;;;;;;;;;5069178;28;20043;-66
2024/02/10 04:30:13;;;;;;;9.32;6.15;;;;;;;;;;5071983;28;20097;-65
2024/02/10 04:32:42;;;;;;;9.93;6.20;;;;;;;;;;5061557;28;20031;-65
2024/02/10 04:35:11;;;;;;;21.42;6.53;;;;;;;;;;5061114;28;20033;-66
2024/02/10 04:37:37;;;;;;;8.13;5.57;;;;;;;;;;5047714;28;20478;-65
2024/02/10 04:40:03;;;;;;;10.48;5.63;;;;;;;;;;5047947;28;20031;-66
2024/02/10 04:42:31;;;;;;;11.38;5.93;;;;;;;;;;5067430;28;20418;-66
2024/02/10 04:44:59;;;;;;;9.52;6.35;;;;;;;;;;5071372;28;20033;-66
2024/02/10 04:47:25;;;;;;;13.30;5.70;;;;;;;;;;5060491;28;20056;-65
2024/02/10 04:49:52;;;;;;;9.35;5.03;;;;;;;;;;5073659;28;20032;-66
2024/02/10 04:52:18;;;;;;;9.68;5.43;;;;;;;;;;5078298;28;20020;-65
2024/02/10 04:54:44;;;;;;;8.15;5.57;;;;;;;;;;5071261;28;20024;-66
2024/02/10 04:57:10;;;;;;;9.27;5.90;;;;;;;;;;5078500;28;20507;-65
2024/02/10 04:59:38;;;;;;;12.95;6.53;;;;;;;;;;5066967;28;20052;-65
2024/02/10 05:02:04;;;;;;;10.43;6.45;;;;;;;;;;5063670;28;20353;-64
2024/02/10 05:04:30;;;;;;;9.07;5.93;;;;;;;;;;5075953;28;20044;-65
2024/02/10 05:06:56;;;;;;;12.98;7.18;;;;;;;;;;5067424;28;20057;-66
2024/02/10 05:09:23;;;;;;;9.57;5.82;;;;;;;;;;5073379;28;20040;-66
2024/02/10 05:11:49;;;;;;;9.57;5.78;;;;;;;;;;5071065;28;20466;-66
2024/02/10 05:14:15;;;;;;;9.75;5.90;;;;;;;;;;5074007;28;20104;-66
2024/02/10 05:16:41;;;;;;;10.63;6.63;;;;;;;;;;5070998;28;20017;-66
2024/02/10 05:19:07;;;;;;;8.77;5.88;;;;;;;;;;5068925;28;20070;-65
2024/02/10 05:21:35;;;;;;;10.48;6.13;;;;;;;;;;5066967;28;20020;-65
2024/02/10 05:24:07;;;;;;;18.92;6.93;;;;;;;;;;5066883;28;20560;-66
2024/02/10 05:26:34;;;;;;;16.90;5.72;;;;;;;;;;5062350;28;20075;-66
2024/02/10 05:29:06;;;;;;;8.40;5.78;;;;;;;;;;5080333;28;20404;-65
2024/02/10 05:31:35;;;;;;;12.77;5.70;;;;;;;;;;5067616;28;20033;-66
2024/02/10 05:34:01;;;;;;;12.30;5.88;;;;;;;;;;5071438;28;20021;-65
2024/02/10 05:36:28;;;;;;;11.95;5.72;;;;;;;;;;5070988;28;20073;-66
2024/02/10 05:38:56;;;;;;;9.85;5.68;;;;;;;;;;5070026;28;20032;-67
2024/02/10 05:41:24;;;;;;;8.63;5.75;;;;;;;;;;5070925;28;20028;-66
2024/02/10 05:43:53;;;;;;;11.65;5.95;;;;;;;;;;5064840;28;20020;-67
2024/02/10 05:46:19;;;;;;;12.18;6.50;;;;;;;;;;5063721;28;20082;-64
2024/02/10 05:48:45;;;;;;;9.48;5.35;;;;;;;;;;5065113;28;20029;-67
2024/02/10 05:51:11;;;;;;;10.40;6.00;;;;;;;;;;5071997;28;20040;-67
2024/02/10 05:53:37;;;;;;;12.32;6.13;;;;;;;;;;5065882;28;20039;-65
2024/02/10 05:56:04;;;;;;;10.93;6.28;;;;;;;;;;5076915;28;20031;-66
2024/02/10 05:58:30;;;;;;;11.80;6.28;;;;;;;;;;5069096;28;20043;-66
2024/02/10 06:00:56;;;;;;;11.48;6.80;;;;;;;;;;5066605;28;20032;-66
2024/02/10 06:03:28;;;;;;;12.85;6.28;;;;;;;;;;5069452;28;20119;-66
2024/02/10 06:05:54;;;;;;;12.70;6.38;;;;;;;;;;5075797;28;20458;-67
2024/02/10 06:08:20;;;;;;;11.90;6.70;;;;;;;;;;5079671;28;20048;-66
2024/02/10 06:10:45;;;;;;;10.63;6.50;;;;;;;;;;5055887;28;20044;-66
2024/02/10 06:13:14;;;;;;;10.13;6.38;;;;;;;;;;5072342;28;20438;-66
2024/02/10 06:15:40;;;;;;;10.23;6.50;;;;;;;;;;5070195;28;20013;-66
2024/02/10 06:18:08;;;;;;;10.88;5.80;;;;;;;;;;5066847;28;20077;-66
2024/02/10 06:20:34;;;;;;;10.25;6.15;;;;;;;;;;5073477;28;20020;-66
2024/02/10 06:23:01;;;;;;;12.80;6.07;;;;;;;;;;5057199;28;20036;-66
2024/02/10 06:25:27;;;;;;;11.80;5.70;;;;;;;;;;5064474;28;20056;-66
2024/02/10 06:27:54;;;;;;;9.60;5.93;;;;;;;;;;5069151;28;20043;-66
2024/02/10 06:30:21;;;;;;;11.15;6.00;;;;;;;;;;5075690;28;20028;-66
2024/02/10 06:32:47;;;;;;;9.20;5.80;;;;;;;;;;5077494;28;20027;-66
2024/02/10 06:35:14;;;;;;;13.80;5.53;;;;;;;;;;5068919;28;20035;-66
2024/02/10 06:37:42;;;;;;;25.63;6.07;;;;;;;;;;5073028;28;20134;-67
2024/02/10 06:40:13;;;;;;;8.65;5.47;;;;;;;;;;5070807;28;20024;-67
2024/02/10 06:42:40;;;;;;;8.40;5.20;;;;;;;;;;5065828;28;20111;-66
2024/02/10 06:45:11;;;;;;;9.93;5.82;;;;;;;;;;5063629;28;20496;-67
2024/02/10 06:47:37;;;;;;;9.93;6.55;;;;;;;;;;5067744;28;20025;-67
2024/02/10 06:50:03;;;;;;;9.70;6.07;;;;;;;;;;5077134;28;20037;-67
2024/02/10 06:52:34;;;;;;;10.52;6.40;;;;;;;;;;5067818;28;20563;-66
2024/02/10 06:55:00;;;;;;;12.07;6.25;;;;;;;;;;5066707;28;20043;-67
2024/02/10 06:57:27;;;;;;;10.80;6.95;;;;;;;;;;5072451;28;20489;-67
2024/02/10 06:59:53;;;;;;;12.73;7.32;;;;;;;;;;5080120;28;20016;-67
2024/02/10 07:02:19;;;;;;;12.18;7.15;;;;;;;;;;5069369;28;20030;-66
2024/02/10 07:04:52;;;;;;;15.70;8.50;;;;;;;;;;5058659;28;20021;-65
2024/02/10 07:07:19;;;;;;;17.63;8.07;;;;;;;;;;5066936;28;20032;-66
2024/02/10 07:09:45;;;;;;;18.02;9.35;;;;;;;;;;5067364;28;20028;-66
2024/02/10 07:12:11;;;;;;;17.27;9.48;;;;;;;;;;5071106;28;20035;-66
2024/02/10 07:14:38;;;;;;;18.27;9.90;;;;;;;;;;5074890;28;20113;-66
2024/02/10 07:17:04;;;;;;;19.98;10.27;;;;;;;;;;5075050;28;20081;-66
2024/02/10 07:19:35;;;;;;;18.38;9.45;;;;;;;;;;5071266;28;20052;-66
2024/02/10 07:22:01;;;;;;;17.77;9.98;;;;;;;;;;5067308;28;20021;-66
2024/02/10 07:24:27;;;;;;;19.15;10.38;;;;;;;;;;5069449;28;20021;-67
2024/02/10 07:26:56;;;;;;;19.92;10.15;;;;;;;;;;5067938;28;20033;-66
2024/02/10 07:29:24;;;;;;;18.85;10.63;;;;;;;;;;5071233;28;20044;-66
2024/02/10 07:31:50;;;;;;;21.45;10.95;;;;;;;;;;5070743;28;20051;-66
2024/02/10 07:34:17;;;;;;;23.35;11.32;;;;;;;;;;5067717;28;20020;-66
2024/02/10 07:36:43;;;;;;;21.35;10.75;;;;;;;;;;5069590;28;20334;-67
2024/02/10 07:39:09;;;;;;;18.48;11.18;;;;;;;;;;5074194;28;20032;-66
2024/02/10 07:41:38;;;;;;;20.55;10.98;;;;;;;;;;5069264;28;20356;-65
2024/02/10 07:44:06;;;;;;;16.52;10.32;;;;;;;;;;5073287;28;20036;-66
2024/02/10 07:46:35;;;;;;;19.17;10.00;;;;;;;;;;5074042;28;20102;-67
2024/02/10 07:49:07;;;;;;;16.10;10.07;;;;;;;;;;5069019;28;20051;-66
2024/02/10 07:51:33;;;;;;;20.15;11.15;;;;;;;;;;5069239;28;20036;-66
2024/02/10 07:54:00;;;;;;;15.07;8.05;;;;;;;;;;5068936;28;20032;-66
2024/02/10 07:56:29;;;;;;;17.02;9.27;;;;;;;;;;5065711;28;20478;-66
2024/02/10 07:58:58;;;;;;;13.95;8.60;;;;;;;;;;5045718;28;20101;-67
2024/02/10 08:01:25;;;;;;;16.00;9.60;;;;;;;;;;5075884;28;20017;-66
2024/02/10 08:03:54;;;;;;;17.30;9.18;;;;;;;;;;5073000;28;20029;-67
2024/02/10 08:06:26;;;;;;;17.48;8.57;;;;;;;;;;5079244;28;20478;-66
2024/02/10 08:08:52;;;;;;;17.85;8.85;;;;;;;;;;5071670;28;20034;-66
2024/02/10 08:11:18;;;;;;;16.58;8.93;;;;;;;;;;5070747;28;20100;-66
2024/02/10 08:13:44;;;;;;;14.68;8.20;;;;;;;;;;5074485;28;20452;-66
2024/02/10 08:16:10;;;;;;;15.50;7.45;;;;;;;;;;5066463;28;20535;-66
2024/02/10 08:18:37;;;;;;;17.17;8.88;;;;;;;;;;5071446;28;20486;-66
2024/02/10 08:21:07;;;;;;;12.63;8.38;;;;;;;;;;5069930;28;20051;-66
2024/02/10 08:23:34;;;;;;;16.42;9.25;;;;;;;;;;5067599;28;20428;-66
2024/02/10 08:26:00;;;;;;;15.02;8.90;;;;;;;;;;5067183;28;20024;-66
2024/02/10 08:28:26;;;;;;;14.98;7.93;;;;;;;;;;5056299;28;20036;-66
2024/02/10 08:30:53;;;;;;;14.05;7.53;;;;;;;;;;5072268;28;20070;-66
2024/02/10 08:33:20;;;;;;;14.50;7.65;;;;;;;;;;5070797;28;20081;-66
2024/02/10 08:35:46;;;;;;;17.00;9.23;;;;;;;;;;5071868;28;20021;-67
2024/02/10 08:38:14;;;;;;;12.77;7.88;;;;;;;;;;5069574;28;20035;-66
2024/02/10 08:40:40;;;;;;;16.25;7.03;;;;;;;;;;5066336;28;20023;-65
2024/02/10 08:43:08;;;;;;;13.18;7.13;;;;;;;;;;5071233;28;20020;-65
2024/02/10 08:45:34;;;;;;;15.73;7.88;;;;;;;;;;5074155;28;20032;-67
2024/02/10 08:48:00;;;;;;;16.17;6.97;;;;;;;;;;5079767;28;20029;-67
2024/02/10 08:50:26;;;;;;;12.63;7.07;;;;;;;;;;5066794;28;20032;-67
2024/02/10 08:52:56;;;;;;;13.27;6.50;;;;;;;;;;5069300;28;20032;-66
2024/02/10 08:55:26;;;;;;;15.10;7.55;;;;;;;;;;5064828;28;20090;-67
2024/02/10 08:57:55;;;;;;;13.63;7.80;;;;;;;;;;5054059;28;20124;-67
2024/02/10 09:00:21;;;;;;;14.48;7.03;;;;;;;;;;5065587;28;20016;-60
2024/02/10 09:02:50;;;;;;;18.75;7.15;;;;;;;;;;5063400;28;20052;-60
2024/02/10 09:05:17;;;;;;;10.70;7.15;;;;;;;;;;5073609;28;20031;-59
2024/02/10 09:07:43;;;;;;;10.63;6.15;;;;;;;;;;5067720;28;20033;-57
2024/02/10 09:10:09;;;;;;;10.13;6.95;;;;;;;;;;5068195;28;20032;-60
2024/02/10 09:12:35;;;;;;;11.63;7.22;;;;;;;;;;5069540;28;20104;-60
2024/02/10 09:15:01;;;;;;;10.10;5.90;;;;;;;;;;5070944;28;20104;-59
2024/02/10 09:17:27;;;;;;;13.45;6.22;;;;;;;;;;5065746;28;20028;-59
2024/02/10 09:19:53;;;;;;;7.80;5.40;;;;;;;;;;5068739;28;20044;-61
2024/02/10 09:22:19;;;;;;;10.43;5.65;;;;;;;;;;5067932;28;20154;-59
2024/02/10 09:24:44;;;;;;;15.02;5.50;;;;;;;;;;5067122;28;20651;-61
2024/02/10 09:27:10;;;;;;;7.97;5.30;;;;;;;;;;5060906;28;20085;-59
2024/02/10 09:29:36;;;;;;;10.00;5.85;;;;;;;;;;5068591;28;20098;-60
2024/02/10 09:32:02;;;;;;;10.23;5.85;;;;;;;;;;5063056;28;20397;-59
2024/02/10 09:34:29;;;;;;;6.90;5.32;;;;;;;;;;5063363;28;20028;-61
2024/02/10 09:36:58;;;;;;;9.10;5.03;;;;;;;;;;5067637;28;20029;-60
2024/02/10 09:39:24;;;;;;;9.63;5.28;;;;;;;;;;5067743;28;20541;-59
2024/02/10 09:41:53;;;;;;;8.30;4.50;;;;;;;;;;5066571;28;20025;-60
2024/02/10 09:44:20;;;;;;;12.70;4.63;;;;;;;;;;5075859;28;20401;-61
2024/02/10 09:46:50;;;;;;;8.73;4.85;;;;;;;;;;5069406;28;20028;-60
2024/02/10 09:49:17;;;;;;;6.32;4.68;;;;;;;;;;5063964;28;20498;-60
2024/02/10 09:51:44;;;;;;;8.80;4.60;;;;;;;;;;5071892;28;20424;-60
2024/02/10 09:54:13;;;;;;;25.20;11.95;;;;;;;;;;5070044;28;20024;-61
2024/02/10 09:56:39;;;;;;;16.98;7.80;;;;;;;;;;5069016;28;20025;-60
2024/02/10 09:59:08;;;;;;;8.40;4.80;;;;;;;;;;5073279;28;20111;-61
2024/02/10 10:01:37;;;;;;;7.15;4.55;;;;;;;;;;5063551;28;20051;-59
2024/02/10 10:04:03;;;;;;;7.20;4.35;;;;;;;;;;5067556;28;20037;-61
2024/02/10 10:06:29;;;;;;;10.20;4.75;;;;;;;;;;5066841;28;20051;-62
2024/02/10 10:08:58;;;;;;;9.07;4.47;;;;;;;;;;5067086;28;20033;-60
2024/02/10 10:11:24;;;;;;;5.13;3.85;;;;;;;;;;5069011;28;20072;-60
2024/02/10 10:13:50;;;;;;;5.22;3.28;;;;;;;;;;5068229;28;20053;-58
2024/02/10 10:16:16;;;;;;;7.13;4.07;;;;;;;;;;5068112;28;20032;-60
2024/02/10 10:18:51;;;;;;;8.02;4.20;;;;;;;;;;5067267;28;20024;-61
2024/02/10 10:21:17;;;;;;;8.73;3.88;;;;;;;;;;5068915;28;20053;-60
2024/02/10 10:23:46;;;;;;;5.03;3.42;;;;;;;;;;5068346;28;20116;-59
2024/02/10 10:26:12;;;;;;;4.57;3.25;;;;;;;;;;5067730;28;20551;-59
2024/02/10 10:28:41;;;;;;;7.35;3.20;;;;;;;;;;5065640;28;20074;-61
2024/02/10 10:31:07;;;;;;;4.25;2.95;;;;;;;;;;5068249;28;20090;-58
2024/02/10 10:33:34;;;;;;;5.25;3.58;;;;;;;;;;5061591;28;20043;-66
2024/02/10 10:36:02;;;;;;;4.55;2.80;;;;;;;;;;5070037;28;20024;-67
2024/02/10 10:38:29;;;;;;;4.35;3.33;;;;;;;;;;5065961;28;20017;-66
2024/02/10 10:40:56;;;;;;;6.97;3.55;;;;;;;;;;5064917;28;20117;-67
2024/02/10 10:43:25;;;;;;;5.20;3.20;;;;;;;;;;5064977;28;20942;-66
2024/02/10 10:45:51;;;;;;;6.63;2.75;;;;;;;;;;5066697;28;20024;-66
2024/02/10 10:48:17;;;;;;;4.78;2.65;;;;;;;;;;5061498;28;20021;-66
2024/02/10 10:50:43;;;;;;;6.15;2.60;;;;;;;;;;5066524;28;20437;-67
2024/02/10 10:53:10;;;;;;;3.40;2.28;;;;;;;;;;5065121;28;20025;-67
2024/02/10 10:55:38;;;;;;;3.25;2.28;;;;;;;;;;5067622;28;20077;-66
2024/02/10 10:58:06;;;;;;;3.92;2.22;;;;;;;;;;5051895;28;20139;-66
2024/02/10 11:00:34;;;;;;;9.52;2.80;;;;;;;;;;5073329;28;20437;-65
2024/02/10 11:03:02;;;;;;;7.70;2.45;;;;;;;;;;5067007;28;20027;-67
2024/02/10 11:05:29;;;;;;;4.97;2.35;;;;;;;;;;5067950;28;20458;-66
2024/02/10 11:08:02;;;;;;;4.43;2.30;;;;;;;;;;5067654;28;20052;-67
2024/02/10 11:10:36;;;;;;;2.55;2.03;;;;;;;;;;5066275;28;20036;-66
2024/02/10 11:13:02;;;;;;;2.22;1.90;;;;;;;;;;5067017;28;20059;-67
2024/02/10 11:15:28;;;;;;;4.88;2.20;;;;;;;;;;5062907;28;20029;-65
2024/02/10 11:17:57;;;;;;;3.38;2.05;;;;;;;;;;5069471;28;20032;-65
2024/02/10 11:20:27;;;;;;;3.03;1.83;;;;;;;;;;5063593;28;20024;-66
2024/02/10 11:22:57;;;;;;;3.40;2.70;;;;;;;;;;5067580;28;20524;-66
2024/02/10 11:25:24;;;;;;;5.15;2.33;;;;;;;;;;5062429;28;20493;-66
2024/02/10 11:27:52;;;;;;;6.57;2.60;;;;;;;;;;5067784;28;20037;-67
2024/02/10 11:30:18;;;;;;;3.10;2.20;;;;;;;;;;5063062;28;20031;-66
2024/02/10 11:32:45;;;;;;;3.90;2.42;;;;;;;;;;5071097;28;20088;-65
2024/02/10 11:35:12;;;;;;;3.47;2.88;;;;;;;;;;5071514;28;20522;-66
2024/02/10 11:37:38;;;;;;;6.45;2.42;;;;;;;;;;5062825;28;20035;-66
2024/02/10 11:40:04;;;;;;;4.95;2.60;;;;;;;;;;5067212;28;20060;-66
2024/02/10 11:42:30;;;;;;;2.35;2.15;;;;;;;;;;5070161;28;20487;-66
2024/02/10 11:45:00;;;;;;;5.13;2.63;;;;;;;;;;5062435;28;20060;-65
2024/02/10 11:47:27;;;;;;;5.75;3.65;;;;;;;;;;5055373;28;20499;-67
2024/02/10 11:49:55;;;;;;;7.05;3.80;;;;;;;;;;5052282;28;20512;-65
2024/02/10 11:52:22;;;;;;;7.57;2.60;;;;;;;;;;5050818;28;20474;-66
2024/02/10 11:54:48;;;;;;;4.20;2.88;;;;;;;;;;5064780;28;20032;-67
2024/02/10 11:57:14;;;;;;;2.45;1.77;;;;;;;;;;5069148;28;20498;-63
2024/02/10 11:59:41;;;;;;;3.10;2.22;;;;;;;;;;5064352;28;20049;-67
2024/02/10 12:02:14;;;;;;;4.53;2.70;;;;;;;;;;5060847;28;20494;-67
2024/02/10 12:04:42;;;;;;;5.65;2.10;;;;;;;;;;5058001;28;20160;-67
2024/02/10 12:07:08;;;;;;;2.88;2.00;;;;;;;;;;5063675;28;20486;-67
2024/02/10 12:09:34;;;;;;;6.45;2.20;;;;;;;;;;5065516;28;20441;-67
2024/02/10 12:12:00;;;;;;;3.38;1.73;;;;;;;;;;5062219;28;20029;-67
2024/02/10 12:14:28;;;;;;;5.72;2.22;;;;;;;;;;5061965;28;20494;-66
2024/02/10 12:17:06;;;;;;;2.88;1.90;;;;;;;;;;5064158;28;20423;-66
2024/02/10 12:19:39;;;;;;;2.63;1.90;;;;;;;;;;5063205;28;20107;-66
2024/02/10 12:22:09;;;;;;;3.85;2.08;;;;;;;;;;5064094;28;20056;-65
2024/02/10 12:24:35;;;;;;;5.38;2.00;;;;;;;;;;5048975;28;20371;-66
2024/02/10 12:27:01;;;;;;;3.47;2.10;;;;;;;;;;5067266;28;20039;-67
2024/02/10 12:29:29;;;;;;;3.20;1.83;;;;;;;;;;5069734;28;20033;-67
2024/02/10 12:31:55;;;;;;;3.58;1.58;;;;;;;;;;5063159;28;20076;-66
2024/02/10 12:34:21;;;;;;;5.05;1.92;;;;;;;;;;5069804;28;20579;-67
2024/02/10 12:36:47;;;;;;;2.55;2.05;;;;;;;;;;5060563;28;21556;-66
2024/02/10 12:39:15;;;;;;;4.03;2.58;;;;;;;;;;5068626;28;20072;-67
2024/02/10 12:41:42;;;;;;;6.15;2.35;;;;;;;;;;5065346;28;20091;-67
2024/02/10 12:44:10;;;;;;;7.85;2.00;;;;;;;;;;5062953;28;20028;-67
2024/02/10 12:46:36;;;;;;;3.55;1.70;;;;;;;;;;5066954;28;20115;-65
2024/02/10 12:49:03;;;;;;;2.92;2.03;;;;;;;;;;5064941;28;20041;-68
2024/02/10 12:51:32;;;;;;;2.38;2.08;;;;;;;;;;5064702;28;20048;-66
2024/02/10 12:53:59;;;;;;;3.78;2.00;;;;;;;;;;5043424;28;20033;-66
2024/02/10 12:56:27;;;;;;;5.55;1.88;;;;;;;;;;5049474;28;20070;-66
2024/02/10 12:58:53;;;;;;;3.03;1.77;;;;;;;;;;5064929;28;20121;-66
2024/02/10 13:01:19;;;;;;;4.80;2.78;;;;;;;;;;5061637;28;20100;-66
2024/02/10 13:03:45;;;;;;;3.20;1.60;;;;;;;;;;5066527;28;20020;-66
2024/02/10 13:06:11;;;;;;;3.85;1.67;;;;;;;;;;5066881;28;20477;-67
2024/02/10 13:08:37;;;;;;;3.28;2.28;;;;;;;;;;5067276;28;20063;-66
2024/02/10 13:11:03;;;;;;;4.45;1.90;;;;;;;;;;5066250;28;20431;-66
2024/02/10 13:13:29;;;;;;;6.43;2.15;;;;;;;;;;5062601;28;20466;-65
2024/02/10 13:15:55;;;;;;;1.88;1.35;;;;;;;;;;5064070;28;20032;-67
2024/02/10 13:18:21;;;;;;;2.72;1.52;;;;;;;;;;5061162;28;20056;-66
2024/02/10 13:20:47;;;;;;;3.15;1.98;;;;;;;;;;5065885;28;20036;-65
2024/02/10 13:23:13;;;;;;;5.78;1.80;;;;;;;;;;5070640;28;20043;-67
2024/02/10 13:25:39;;;;;;;2.13;1.52;;;;;;;;;;5063205;28;20135;-66
2024/02/10 13:28:11;;;;;;;3.92;1.95;;;;;;;;;;5064478;28;20028;-66
2024/02/10 13:30:37;;;;;;;2.85;1.48;;;;;;;;;;5066213;28;20480;-66
2024/02/10 13:33:05;;;;;;;4.53;1.67;;;;;;;;;;5041956;28;20064;-66
2024/02/10 13:35:33;;;;;;;3.97;2.00;;;;;;;;;;5059747;28;20016;-65
2024/02/10 14:12:39;;;;;;;2.10;1.40;;;;;;;;;;5061828;28;20090;-66
2024/02/10 14:15:16;;;;;;;2.38;1.45;;;;;;;;;;5067178;28;20039;-66
2024/02/10 14:17:42;;;;;;;2.45;1.38;;;;;;;;;;5066999;28;20136;-65
2024/02/10 14:20:24;;;;;;;5.13;1.90;;;;;;;;;;5058509;28;20056;-66
2024/02/10 14:22:53;;;;;;;3.78;2.00;;;;;;;;;;5067403;28;20540;-66
2024/02/10 14:25:27;;;;;;;2.17;1.50;;;;;;;;;;5070286;28;20044;-66
2024/02/10 14:27:56;;;;;;;2.45;1.58;;;;;;;;;;5066794;28;20032;-66
2024/02/10 14:30:31;;;;;;;2.17;1.45;;;;;;;;;;5075310;28;20044;-66
2024/02/10 14:32:58;;;;;;;3.15;1.40;;;;;;;;;;5064743;28;20078;-65
2024/02/10 14:35:44;;;;;;;7.85;1.75;;;;;;;;;;5063763;28;20037;-66
2024/02/10 14:38:23;;;;;;;4.75;1.85;;;;;;;;;;5068585;28;20028;-66
2024/02/10 14:40:49;;;;;;;4.18;1.95;;;;;;;;;;5063696;28;20517;-66
2024/02/10 14:43:16;;;;;;;5.35;1.85;;;;;;;;;;5065899;28;20028;-66
2024/02/10 14:45:42;;;;;;;3.75;1.80;;;;;;;;;;5063593;28;20031;-66
2024/02/10 14:48:08;;;;;;;7.80;2.35;;;;;;;;;;5069919;28;20074;-67
2024/02/10 14:50:34;;;;;;;5.25;2.00;;;;;;;;;;5069870;28;20067;-65
2024/02/10 14:53:00;;;;;;;3.35;1.83;;;;;;;;;;5071680;28;20025;-66
2024/02/10 14:55:28;;;;;;;3.72;2.03;;;;;;;;;;5071829;28;20028;-65
2024/02/10 14:57:54;;;;;;;5.57;2.03;;;;;;;;;;5050834;28;20115;-65
2024/02/10 15:00:30;;;;;;;2.85;1.95;;;;;;;;;;5068559;28;20016;-66
2024/02/10 15:02:57;;;;;;;5.13;2.10;;;;;;;;;;5064409;28;20559;-66
2024/02/10 15:05:26;;;;;;;4.68;1.90;;;;;;;;;;5071328;28;20036;-66
2024/02/10 15:07:52;;;;;;;3.40;2.13;;;;;;;;;;5068967;28;20032;-66
2024/02/10 15:10:17;;;;;;;5.22;2.58;;;;;;;;;;5065558;28;20040;-66